Time;durP1;ratioP1;P1;durP2;ratioP2;P2;SDS_P1;SDS_P2;PMS_P1;PMS_P2;Temp;Humidity;BMP_temperature;BMP_pressure;BME280_temperature;BME280_humidity;BME280_pressure;Samples;Min_cycle;Max_cycle;Signal;HPM_P1;HPM_P2
2024/01/18 00:01:17;;;;;;;30.35;14.98;;;;;;;-3.37;100.00;98617.25;7327446;19;20202;-41
2024/01/18 00:03:51;;;;;;;30.48;14.90;;;;;;;-3.39;100.00;98617.16;7351946;19;20199;-40
2024/01/18 00:06:21;;;;;;;32.88;15.38;;;;;;;-3.43;100.00;98611.03;7327155;19;20185;-45
2024/01/18 00:08:51;;;;;;;106.88;32.10;;;;;;;-3.40;100.00;98616.28;7352302;19;20221;-41
2024/01/18 00:11:20;;;;;;;34.67;14.93;;;;;;;-3.49;100.00;98624.94;7327259;19;20212;-42
2024/01/18 00:13:50;;;;;;;32.88;14.73;;;;;;;-3.60;100.00;98624.25;7350955;19;20202;-41
2024/01/18 00:16:20;;;;;;;48.60;20.23;;;;;;;-3.63;100.00;98626.56;7329310;19;20747;-40
2024/01/18 00:18:52;;;;;;;26.23;13.48;;;;;;;-3.71;100.00;98634.50;7351132;19;20262;-40
2024/01/18 00:21:22;;;;;;;31.92;13.75;;;;;;;-3.69;100.00;98629.56;7328406;19;20272;-42
2024/01/18 00:23:52;;;;;;;27.00;13.45;;;;;;;-3.76;100.00;98637.53;7350723;19;20198;-41
2024/01/18 00:26:22;;;;;;;31.67;14.25;;;;;;;-3.74;100.00;98633.44;7329123;19;20198;-41
2024/01/18 00:28:52;;;;;;;28.50;13.20;;;;;;;-3.79;100.00;98635.69;7350853;19;20269;-43
2024/01/18 00:31:21;;;;;;;31.63;15.05;;;;;;;-3.77;100.00;98636.63;7329805;19;20670;-45
2024/01/18 00:33:57;;;;;;;43.00;16.67;;;;;;;-3.79;100.00;98645.75;7350527;19;20198;-42
2024/01/18 00:36:29;;;;;;;38.28;15.32;;;;;;;-3.75;100.00;98641.78;7328827;19;20202;-42
2024/01/18 00:38:58;;;;;;;58.28;23.55;;;;;;;-3.66;100.00;98640.72;7351304;19;20231;-43
2024/01/18 00:41:34;;;;;;;38.75;16.50;;;;;;;-3.80;100.00;98639.84;7326574;19;20206;-42
2024/01/18 00:44:03;;;;;;;34.50;15.00;;;;;;;-3.76;100.00;98650.13;7351218;19;20200;-41
2024/01/18 00:46:33;;;;;;;55.10;18.90;;;;;;;-3.72;100.00;98641.97;7329525;19;20194;-41
2024/01/18 00:49:05;;;;;;;31.80;15.18;;;;;;;-3.80;100.00;98644.88;7350755;19;20198;-42
2024/01/18 00:51:35;;;;;;;40.08;16.25;;;;;;;-3.88;100.00;98645.16;7328291;19;20254;-40
2024/01/18 00:54:04;;;;;;;36.55;15.65;;;;;;;-3.91;100.00;98650.84;7349980;19;20194;-40
2024/01/18 00:56:34;;;;;;;38.55;16.05;;;;;;;-3.91;100.00;98644.97;7349098;19;20194;-41
2024/01/18 00:59:04;;;;;;;79.82;29.52;;;;;;;-3.78;100.00;98652.53;7350593;19;20198;-41
2024/01/18 01:01:33;;;;;;;36.20;15.50;;;;;;;-3.88;100.00;98665.31;7327732;19;20226;-42
2024/01/18 01:04:06;;;;;;;33.97;14.95;;;;;;;-3.94;100.00;98655.72;7349993;19;20195;-42
2024/01/18 01:06:36;;;;;;;31.88;16.15;;;;;;;-3.97;100.00;98665.56;7326624;19;20218;-41
2024/01/18 01:09:06;;;;;;;32.25;15.52;;;;;;;-3.98;100.00;98668.88;7339418;19;20194;-40
2024/01/18 01:11:36;;;;;;;46.00;19.80;;;;;;;-3.98;100.00;98674.78;7349290;19;20216;-41
2024/01/18 01:14:05;;;;;;;75.72;29.27;;;;;;;-3.72;100.00;98682.31;7338205;19;20202;-40
2024/01/18 01:16:35;;;;;;;34.08;16.58;;;;;;;-3.83;100.00;98687.53;7348463;19;20194;-43
2024/01/18 01:19:07;;;;;;;37.28;17.23;;;;;;;-3.90;100.00;98687.88;7348481;19;20205;-40
2024/01/18 01:21:37;;;;;;;42.47;15.25;;;;;;;-4.03;100.00;98691.25;7348191;19;20202;-42
2024/01/18 01:24:07;;;;;;;35.70;16.48;;;;;;;-4.08;100.00;98692.59;7328172;19;20190;-40
2024/01/18 01:26:37;;;;;;;55.00;25.00;;;;;;;-3.95;100.00;98695.16;7347814;19;20194;-42
2024/01/18 01:29:08;;;;;;;39.92;17.63;;;;;;;-4.03;100.00;98701.31;7327416;19;20568;-40
2024/01/18 01:31:37;;;;;;;36.65;17.48;;;;;;;-4.00;100.00;98700.66;7347469;19;20274;-40
2024/01/18 01:34:10;;;;;;;36.47;17.60;;;;;;;-4.01;100.00;98699.78;7327488;19;20665;-45
2024/01/18 01:36:40;;;;;;;37.15;16.48;;;;;;;-3.97;100.00;98701.72;7348358;19;20208;-42
2024/01/18 01:39:10;;;;;;;37.55;15.70;;;;;;;-4.01;100.00;98704.81;7327113;19;20202;-41
2024/01/18 01:41:39;;;;;;;42.28;18.75;;;;;;;-4.04;100.00;98709.66;7346059;19;20290;-41
2024/01/18 01:44:09;;;;;;;34.20;16.95;;;;;;;-3.97;100.00;98710.94;7327319;19;20209;-41
2024/01/18 01:46:39;;;;;;;55.53;21.50;;;;;;;-3.93;100.00;98713.75;7347963;19;20198;-42
2024/01/18 01:49:11;;;;;;;38.90;15.75;;;;;;;-4.04;100.00;98704.63;7327063;19;20199;-41
2024/01/18 01:51:48;;;;;;;35.00;17.65;;;;;;;-4.14;100.00;98737.53;7347537;19;20206;-42
2024/01/18 01:54:19;;;;;;;37.72;16.98;;;;;;;-4.08;100.00;98768.16;7327241;19;20209;-41
2024/01/18 01:56:51;;;;;;;37.17;17.55;;;;;;;-4.14;100.00;98792.94;7347659;19;20199;-42
2024/01/18 01:59:21;;;;;;;39.45;18.95;;;;;;;-4.08;100.00;98804.31;7326848;19;20583;-41
2024/01/18 02:01:52;;;;;;;34.55;17.20;;;;;;;-4.14;100.00;98819.03;7346666;19;20202;-42
2024/01/18 02:04:24;;;;;;;44.15;18.30;;;;;;;-4.04;100.00;98833.13;7326648;19;20210;-41
2024/01/18 02:06:54;;;;;;;75.93;28.95;;;;;;;-4.11;100.00;98846.06;7341768;19;21008;-41
2024/01/18 02:09:24;;;;;;;37.72;16.90;;;;;;;-4.19;100.00;98850.56;7326358;19;20250;-42
2024/01/18 02:11:54;;;;;;;39.42;17.95;;;;;;;-4.24;100.00;98860.34;7346855;19;20684;-41
2024/01/18 02:14:24;;;;;;;35.38;17.58;;;;;;;-4.22;100.00;98875.53;7326735;19;20277;-44
2024/01/18 02:16:54;;;;;;;33.65;15.90;;;;;;;-4.24;100.00;98880.47;7347554;19;20198;-43
2024/01/18 02:19:26;;;;;;;37.05;17.77;;;;;;;-4.20;100.00;98891.66;7323958;19;20197;-42
2024/01/18 02:21:55;;;;;;;42.85;19.48;;;;;;;-4.12;100.00;98899.72;7346897;19;20576;-42
2024/01/18 02:24:31;;;;;;;40.03;18.38;;;;;;;-4.07;100.00;98913.53;7325913;19;20203;-42
2024/01/18 02:27:04;;;;;;;41.03;19.45;;;;;;;-4.01;100.00;98921.50;7347090;19;20561;-43
2024/01/18 02:29:33;;;;;;;48.55;19.15;;;;;;;-4.14;100.00;98909.72;7326395;19;20267;-43
2024/01/18 02:32:03;;;;;;;80.57;30.88;;;;;;;-3.93;100.00;98917.00;7346342;19;20345;-42
2024/01/18 02:34:33;;;;;;;36.55;18.17;;;;;;;-3.85;100.00;98918.41;7326597;19;20201;-42
2024/01/18 02:37:02;;;;;;;39.47;18.77;;;;;;;-4.09;100.00;98912.53;7346734;19;20893;-43
2024/01/18 02:39:32;;;;;;;37.78;17.10;;;;;;;-4.22;100.00;98906.66;7325901;19;20204;-43
2024/01/18 02:42:05;;;;;;;40.47;18.17;;;;;;;-4.28;100.00;98906.22;7344037;19;20229;-42
2024/01/18 02:44:34;;;;;;;33.13;16.75;;;;;;;-4.30;100.00;98902.72;7326143;19;20586;-43
2024/01/18 02:47:04;;;;;;;39.08;18.73;;;;;;;-4.35;100.00;98909.91;7346843;19;20205;-42
2024/01/18 02:49:38;;;;;;;35.63;17.42;;;;;;;-4.48;100.00;98918.25;7326211;19;20214;-43
2024/01/18 02:52:09;;;;;;;37.38;16.40;;;;;;;-4.43;100.00;98925.25;7324766;19;20198;-41
2024/01/18 02:54:38;;;;;;;38.85;18.17;;;;;;;-4.48;100.00;98943.44;7346867;19;20209;-40
2024/01/18 02:57:11;;;;;;;33.97;15.93;;;;;;;-4.55;100.00;98948.81;7324246;19;20193;-41
2024/01/18 02:59:40;;;;;;;37.22;18.15;;;;;;;-4.54;100.00;98968.16;7346144;19;20765;-41
2024/01/18 03:02:10;;;;;;;38.53;17.95;;;;;;;-4.44;100.00;98973.84;7323191;19;20206;-42
2024/01/18 03:04:39;;;;;;;39.67;18.45;;;;;;;-4.51;100.00;98980.97;7346070;19;20262;-40
2024/01/18 03:07:09;;;;;;;81.00;32.03;;;;;;;-4.20;100.00;99003.34;7323963;19;20198;-40
2024/01/18 03:09:40;;;;;;;73.25;26.58;;;;;;;-4.27;100.00;99007.81;7346026;19;20272;-42
2024/01/18 03:12:12;;;;;;;48.35;20.48;;;;;;;-4.31;100.00;98996.66;7324260;19;20611;-42
2024/01/18 03:14:42;;;;;;;43.95;21.48;;;;;;;-4.31;100.00;99003.34;7346721;19;20198;-40
2024/01/18 03:17:12;;;;;;;47.40;20.50;;;;;;;-4.36;100.00;98993.81;7323753;19;20201;-40
2024/01/18 03:19:41;;;;;;;40.33;19.17;;;;;;;-4.25;100.00;98997.09;7346035;19;20821;-42
2024/01/18 03:22:11;;;;;;;41.65;21.70;;;;;;;-4.23;100.00;98999.72;7323448;19;20198;-44
2024/01/18 03:24:41;;;;;;;49.30;20.55;;;;;;;-4.13;100.00;98989.56;7346066;19;20193;-42
2024/01/18 03:27:13;;;;;;;37.50;18.25;;;;;;;-4.11;100.00;98977.94;7322811;19;20202;-40
2024/01/18 03:29:43;;;;;;;38.20;18.42;;;;;;;-4.15;100.00;98957.47;7345619;19;20201;-40
2024/01/18 03:32:12;;;;;;;43.45;19.30;;;;;;;-4.30;100.00;98937.97;7330160;19;20281;-40
2024/01/18 03:34:42;;;;;;;43.92;19.38;;;;;;;-4.37;100.00;98925.69;7352639;19;20570;-43
2024/01/18 03:37:11;;;;;;;44.97;20.33;;;;;;;-4.43;100.00;98923.63;7330291;19;20203;-43
2024/01/18 03:39:41;;;;;;;36.17;18.52;;;;;;;-4.42;100.00;98929.53;7353318;19;20208;-44
2024/01/18 03:42:13;;;;;;;37.78;18.55;;;;;;;-4.44;100.00;98931.94;7328534;19;20228;-42
2024/01/18 03:44:43;;;;;;;38.95;17.35;;;;;;;-4.49;100.00;98940.81;7351780;19;20201;-42
2024/01/18 03:47:13;;;;;;;36.15;18.50;;;;;;;-4.54;100.00;98957.22;7330153;19;20277;-44
2024/01/18 03:49:44;;;;;;;36.85;19.05;;;;;;;-4.56;100.00;98979.75;7351802;19;20623;-40
2024/01/18 03:52:14;;;;;;;34.83;17.83;;;;;;;-4.57;100.00;98995.63;7329877;19;20846;-40
2024/01/18 03:54:44;;;;;;;37.72;18.83;;;;;;;-4.60;100.00;99018.06;7352883;19;20262;-41
2024/01/18 03:57:16;;;;;;;39.90;18.65;;;;;;;-4.63;100.00;99030.41;7329646;19;20201;-41
2024/01/18 03:59:47;;;;;;;42.05;18.70;;;;;;;-4.65;100.00;99044.53;7351934;19;20210;-43
2024/01/18 04:02:17;;;;;;;36.53;16.65;;;;;;;-4.72;100.00;99068.34;7331208;19;20216;-40
2024/01/18 04:04:46;;;;;;;36.42;17.85;;;;;;;-4.78;100.00;99068.78;7351708;19;20291;-40
2024/01/18 04:07:18;;;;;;;36.00;17.70;;;;;;;-4.80;100.00;99085.41;7329429;19;20201;-40
2024/01/18 04:09:47;;;;;;;44.08;17.50;;;;;;;-4.79;100.00;99099.75;7351381;19;20197;-41
2024/01/18 04:12:20;;;;;;;45.72;20.05;;;;;;;-4.76;100.00;99115.06;7330595;19;20206;-42
2024/01/18 04:14:49;;;;;;;41.65;18.67;;;;;;;-4.65;100.00;99130.13;7352761;19;20265;-41
2024/01/18 04:17:19;;;;;;;44.00;17.60;;;;;;;-4.64;100.00;99137.81;7329608;19;20563;-41
2024/01/18 04:19:49;;;;;;;39.13;17.73;;;;;;;-4.70;100.00;99141.47;7351734;19;20219;-43
2024/01/18 04:22:19;;;;;;;33.42;16.08;;;;;;;-4.71;100.00;99154.81;7330036;19;20261;-42
2024/01/18 04:24:48;;;;;;;31.15;15.68;;;;;;;-4.73;100.00;99162.25;7350934;19;20274;-39
2024/01/18 04:27:21;;;;;;;42.65;17.40;;;;;;;-4.64;100.00;99172.16;7328822;19;20628;-43
2024/01/18 04:29:50;;;;;;;39.10;16.98;;;;;;;-4.65;100.00;99176.34;7351282;19;20210;-45
2024/01/18 04:32:20;;;;;;;34.28;16.23;;;;;;;-4.71;100.00;99185.94;7329081;19;20565;-42
2024/01/18 04:34:49;;;;;;;30.58;15.35;;;;;;;-4.77;100.00;99193.88;7352263;19;20202;-40
2024/01/18 04:37:19;;;;;;;54.15;21.80;;;;;;;-4.75;100.00;99212.50;7329148;19;20198;-40
2024/01/18 04:39:49;;;;;;;34.72;16.92;;;;;;;-4.79;100.00;99209.59;7350718;19;20219;-42
2024/01/18 04:42:21;;;;;;;35.80;15.93;;;;;;;-4.79;100.00;99202.94;7325086;19;20697;-41
2024/01/18 04:44:50;;;;;;;30.77;15.90;;;;;;;-4.82;100.00;99202.69;7350509;19;20887;-41
2024/01/18 04:47:20;;;;;;;29.60;13.98;;;;;;;-4.84;100.00;99210.88;7328346;19;20257;-40
2024/01/18 04:49:49;;;;;;;34.92;15.00;;;;;;;-4.88;100.00;99214.78;7350733;19;20209;-41
2024/01/18 04:52:20;;;;;;;32.47;15.95;;;;;;;-4.82;100.00;99230.38;7328422;19;20221;-41
2024/01/18 04:54:50;;;;;;;41.10;15.13;;;;;;;-4.79;100.00;99233.16;7350235;19;20678;-41
2024/01/18 04:57:22;;;;;;;33.97;16.80;;;;;;;-4.78;100.00;99252.50;7328102;19;20682;-41
2024/01/18 04:59:52;;;;;;;37.83;17.05;;;;;;;-4.70;100.00;99254.75;7351194;19;20722;-44
2024/01/18 05:02:22;;;;;;;40.25;16.83;;;;;;;-4.61;100.00;99263.03;7328015;19;20240;-43
2024/01/18 05:04:52;;;;;;;36.00;17.20;;;;;;;-4.55;100.00;99263.50;7350336;19;20198;-42
2024/01/18 05:07:22;;;;;;;34.83;16.92;;;;;;;-4.45;100.00;99269.25;7328589;19;20265;-41
2024/01/18 05:09:52;;;;;;;45.35;17.67;;;;;;;-4.55;100.00;99261.00;7349659;19;20194;-40
2024/01/18 05:12:24;;;;;;;38.78;18.65;;;;;;;-4.52;100.00;99252.81;7327179;19;20221;-40
2024/01/18 05:14:54;;;;;;;48.45;18.55;;;;;;;-4.51;100.00;99242.81;7349617;19;20198;-39
2024/01/18 05:17:29;;;;;;;46.97;17.33;;;;;;;-4.55;100.00;99228.25;7328073;19;20211;-41
2024/01/18 05:19:59;;;;;;;34.13;17.27;;;;;;;-4.62;100.00;99214.31;7349516;19;20669;-40
2024/01/18 05:22:29;;;;;;;37.85;18.10;;;;;;;-4.71;100.00;99202.66;7327787;19;20202;-45
2024/01/18 05:24:59;;;;;;;39.05;17.60;;;;;;;-4.75;100.00;99189.84;7349748;19;20708;-40
2024/01/18 05:27:32;;;;;;;33.72;16.83;;;;;;;-4.73;100.00;99191.59;7326726;19;20258;-43
2024/01/18 05:30:04;;;;;;;35.47;16.48;;;;;;;-4.75;100.00;99184.81;7349246;19;20202;-46
2024/01/18 05:32:34;;;;;;;38.47;16.90;;;;;;;-4.78;100.00;99184.56;7326920;19;20203;-44
2024/01/18 05:35:05;;;;;;;38.67;17.52;;;;;;;-4.77;100.00;99181.28;7350281;19;20547;-40
2024/01/18 05:37:34;;;;;;;38.95;16.92;;;;;;;-4.76;100.00;99183.03;7327394;19;20285;-44
2024/01/18 05:40:04;;;;;;;35.72;17.08;;;;;;;-4.76;100.00;99169.59;7349702;19;20283;-41
2024/01/18 05:42:36;;;;;;;45.67;18.58;;;;;;;-4.89;100.00;99168.63;7325717;19;20318;-41
2024/01/18 05:45:07;;;;;;;53.38;19.00;;;;;;;-4.84;100.00;99166.47;7336873;19;20198;-40
2024/01/18 05:47:37;;;;;;;40.55;15.95;;;;;;;-4.91;100.00;99169.28;7348175;19;20198;-42
2024/01/18 05:50:08;;;;;;;35.55;16.33;;;;;;;-4.92;100.00;99175.06;7330025;19;20226;-43
2024/01/18 05:52:38;;;;;;;42.28;17.00;;;;;;;-4.89;100.00;99181.22;7348195;19;20225;-46
2024/01/18 05:55:08;;;;;;;39.78;16.73;;;;;;;-4.84;100.00;99191.63;7326936;19;20603;-40
2024/01/18 05:57:41;;;;;;;39.47;18.23;;;;;;;-4.84;100.00;99191.63;7347780;19;20186;-40
2024/01/18 06:00:12;;;;;;;44.35;18.63;;;;;;;-4.88;100.00;99187.09;7326978;19;20194;-46
2024/01/18 06:02:42;;;;;;;38.28;17.30;;;;;;;-4.95;100.00;99195.84;7347626;19;20229;-39
2024/01/18 06:05:12;;;;;;;38.10;18.70;;;;;;;-4.93;100.00;99189.28;7325405;19;20190;-41
2024/01/18 06:07:41;;;;;;;48.53;19.70;;;;;;;-4.90;100.00;99189.53;7347875;19;20198;-42
2024/01/18 06:10:12;;;;;;;46.88;20.17;;;;;;;-4.90;100.00;99183.59;7326437;19;20270;-41
2024/01/18 06:12:44;;;;;;;46.70;18.77;;;;;;;-4.96;100.00;99189.06;7347341;19;20228;-45
2024/01/18 06:15:14;;;;;;;34.88;15.80;;;;;;;-4.97;100.00;99184.75;7326287;19;20583;-42
2024/01/18 06:17:44;;;;;;;42.05;17.17;;;;;;;-5.04;100.00;99190.06;7347075;19;20725;-41
2024/01/18 06:20:14;;;;;;;34.45;17.38;;;;;;;-5.04;100.00;99180.00;7325765;19;20611;-42
2024/01/18 06:22:44;;;;;;;50.33;17.92;;;;;;;-4.98;100.00;99187.19;7347865;19;20198;-42
2024/01/18 06:25:14;;;;;;;37.97;16.67;;;;;;;-5.02;100.00;99184.41;7325168;19;20734;-44
2024/01/18 06:27:46;;;;;;;33.72;16.80;;;;;;;-5.01;100.00;99192.84;7347427;19;20241;-40
2024/01/18 06:30:18;;;;;;;39.58;17.55;;;;;;;-4.93;100.00;99193.44;7325670;19;20186;-40
2024/01/18 06:32:48;;;;;;;32.75;16.73;;;;;;;-4.94;100.00;99194.19;7345904;19;20206;-40
2024/01/18 06:35:17;;;;;;;34.53;18.05;;;;;;;-5.01;100.00;99195.34;7323828;19;21270;-39
2024/01/18 06:37:47;;;;;;;35.15;17.02;;;;;;;-5.06;100.00;99192.50;7348384;19;20573;-42
2024/01/18 06:40:17;;;;;;;36.75;17.08;;;;;;;-5.08;100.00;99201.53;7324495;19;20283;-41
2024/01/18 06:42:50;;;;;;;39.00;17.25;;;;;;;-5.03;100.00;99201.91;7345773;19;20202;-41
2024/01/18 06:45:19;;;;;;;34.50;15.80;;;;;;;-5.04;100.00;99211.09;7324615;19;20289;-40
2024/01/18 06:47:49;;;;;;;34.00;15.70;;;;;;;-4.99;100.00;99208.06;7347281;19;20260;-40
2024/01/18 06:50:18;;;;;;;34.35;15.68;;;;;;;-5.01;100.00;99213.81;7324820;19;20218;-41
2024/01/18 06:52:48;;;;;;;41.45;17.73;;;;;;;-5.05;100.00;99219.41;7346969;19;20275;-42
2024/01/18 06:55:19;;;;;;;34.38;17.65;;;;;;;-4.98;100.00;99229.94;7325093;19;20734;-41
2024/01/18 06:57:51;;;;;;;31.90;15.93;;;;;;;-4.96;100.00;99243.50;7345847;19;20212;-41
2024/01/18 07:00:23;;;;;;;36.90;17.50;;;;;;;-4.91;100.00;99252.31;7324249;19;20239;-43
2024/01/18 07:02:53;;;;;;;52.17;20.45;;;;;;;-4.76;100.00;99257.69;7345895;19;20194;-42
2024/01/18 07:05:24;;;;;;;37.65;17.88;;;;;;;-4.87;100.00;99249.28;7321789;19;20261;-40
2024/01/18 07:07:54;;;;;;;37.55;17.58;;;;;;;-4.94;100.00;99252.94;7345358;19;20205;-42
2024/01/18 07:10:23;;;;;;;33.58;17.70;;;;;;;-4.89;100.00;99263.38;7322182;19;20263;-42
2024/01/18 07:12:55;;;;;;;49.10;17.90;;;;;;;-4.92;100.00;99264.00;7346585;19;20206;-44
2024/01/18 07:15:25;;;;;;;83.93;29.50;;;;;;;-4.85;100.00;99262.88;7324557;19;20355;-41
2024/01/18 07:17:55;;;;;;;38.80;16.25;;;;;;;-4.93;100.00;99264.75;7345135;19;20190;-41
2024/01/18 07:20:26;;;;;;;41.40;17.92;;;;;;;-4.96;100.00;99266.16;7323617;19;20191;-42
2024/01/18 07:22:56;;;;;;;48.15;17.23;;;;;;;-5.03;100.00;99268.19;7346417;19;20713;-44
2024/01/18 07:25:26;;;;;;;32.88;16.52;;;;;;;-4.91;100.00;99277.47;7322879;19;20203;-41
2024/01/18 07:27:58;;;;;;;50.83;20.98;;;;;;;-4.79;100.00;99278.44;7344739;19;20204;-42
2024/01/18 07:30:27;;;;;;;40.15;18.38;;;;;;;-4.84;100.00;99284.75;7323007;19;20567;-41
2024/01/18 07:32:57;;;;;;;37.00;16.58;;;;;;;-4.83;100.00;99285.63;7345702;19;20291;-41
2024/01/18 07:35:27;;;;;;;50.05;19.58;;;;;;;-4.90;100.00;99279.22;7323320;19;20206;-43
2024/01/18 07:37:57;;;;;;;35.70;15.80;;;;;;;-4.93;100.00;99268.94;7344686;19;20211;-41
2024/01/18 07:40:26;;;;;;;36.95;15.50;;;;;;;-4.89;100.00;99265.88;7323546;19;20839;-43
2024/01/18 07:42:58;;;;;;;39.95;17.83;;;;;;;-4.86;100.00;99265.25;7344236;19;20575;-43
2024/01/18 07:45:28;;;;;;;36.92;18.02;;;;;;;-4.88;100.00;99253.44;7320798;19;20668;-41
2024/01/18 07:47:58;;;;;;;46.55;18.77;;;;;;;-4.80;100.00;99254.03;7344536;19;20219;-41
2024/01/18 07:50:27;;;;;;;34.53;17.15;;;;;;;-4.82;100.00;99253.03;7323047;19;20285;-41
2024/01/18 07:53:05;;;;;;;43.15;18.00;;;;;;;-4.90;100.00;99244.88;7344737;19;20206;-40
2024/01/18 07:55:34;;;;;;;36.72;18.27;;;;;;;-4.86;100.00;99235.06;7323309;19;20340;-40
2024/01/18 07:58:07;;;;;;;36.70;15.90;;;;;;;-4.85;100.00;99232.66;7343931;19;20205;-41
2024/01/18 08:00:36;;;;;;;44.42;18.33;;;;;;;-4.93;100.00;99227.03;7322120;19;20211;-42
2024/01/18 08:03:07;;;;;;;38.17;18.10;;;;;;;-4.87;100.00;99229.16;7329034;19;20202;-40
2024/01/18 08:05:36;;;;;;;45.17;19.80;;;;;;;-4.83;100.00;99226.09;7345062;19;20261;-42
2024/01/18 08:08:07;;;;;;;42.38;18.63;;;;;;;-4.78;100.00;99224.84;7330029;19;20233;-40
2024/01/18 08:10:36;;;;;;;52.97;18.63;;;;;;;-4.78;100.00;99218.91;7344231;19;20663;-41
2024/01/18 08:13:08;;;;;;;43.03;16.42;;;;;;;-4.81;100.00;99223.72;7336174;19;20198;-40
2024/01/18 08:15:38;;;;;;;46.95;20.15;;;;;;;-4.86;100.00;99222.47;7343926;19;20202;-41
2024/01/18 08:18:05;;;;;;;39.60;16.65;;;;;;;-4.87;100.00;99234.19;7325747;19;20209;-41
2024/01/18 08:20:35;;;;;;;51.22;21.17;;;;;;;-4.78;100.00;99234.91;7349920;19;20589;-41
2024/01/18 08:23:05;;;;;;;35.72;15.57;;;;;;;-4.82;100.00;99237.06;7351250;19;20562;-41
2024/01/18 08:25:34;;;;;;;54.03;21.23;;;;;;;-4.76;100.00;99243.44;7329995;19;20202;-41
2024/01/18 08:28:04;;;;;;;30.58;15.23;;;;;;;-4.80;100.00;99236.44;7350467;19;20201;-40
2024/01/18 08:30:36;;;;;;;45.85;17.05;;;;;;;-4.77;100.00;99246.72;7328694;19;20732;-40
2024/01/18 08:33:08;;;;;;;47.05;18.85;;;;;;;-4.63;100.00;99249.44;7338481;19;20196;-41
2024/01/18 08:35:38;;;;;;;37.05;16.95;;;;;;;-4.63;100.00;99249.44;7351112;19;20202;-41
2024/01/18 08:38:08;;;;;;;48.15;20.25;;;;;;;-4.56;100.00;99248.28;7328665;19;20198;-40
2024/01/18 08:40:37;;;;;;;50.70;20.85;;;;;;;-4.53;100.00;99256.94;7342493;19;20277;-43
2024/01/18 08:43:07;;;;;;;38.00;18.08;;;;;;;-4.47;100.00;99254.91;7325433;19;20205;-41
2024/01/18 08:45:41;;;;;;;45.10;19.83;;;;;;;-4.24;100.00;99270.03;7348588;19;20657;-41
2024/01/18 08:48:11;;;;;;;34.42;16.98;;;;;;;-4.26;100.00;99267.38;7329015;19;20193;-41
2024/01/18 08:50:41;;;;;;;37.80;17.25;;;;;;;-4.23;100.00;99261.69;7350097;19;20206;-42
2024/01/18 08:53:10;;;;;;;57.47;22.75;;;;;;;-4.22;100.00;99258.41;7328584;19;20672;-41
2024/01/18 08:55:41;;;;;;;34.30;16.75;;;;;;;-4.21;100.00;99276.19;7350137;19;20194;-42
2024/01/18 08:58:11;;;;;;;29.70;13.23;;;;;;;-4.28;100.00;99280.63;7327338;19;20265;-46
2024/01/18 09:00:43;;;;;;;50.90;18.45;;;;;;;-4.21;100.00;99286.25;7349544;19;20198;-42
2024/01/18 09:03:13;;;;;;;69.60;26.15;;;;;;;-4.15;100.00;99295.06;7328136;19;20194;-42
2024/01/18 09:05:47;;;;;;;38.80;16.05;;;;;;;-4.18;100.00;99300.72;7349363;19;20202;-41
2024/01/18 09:08:17;;;;;;;43.05;14.95;;;;;;;-4.06;100.00;99305.81;7329422;19;20202;-41
2024/01/18 09:10:47;;;;;;;30.55;9.68;;;;;;;-4.07;100.00;99304.06;7348972;19;20190;-41
2024/01/18 09:13:17;;;;;;;45.22;18.48;;;;;;;-3.87;100.00;99307.22;7329271;19;20273;-41
2024/01/18 09:15:54;;;;;;;35.25;14.20;;;;;;;-3.91;100.00;99313.69;7347821;19;20203;-41
2024/01/18 09:18:24;;;;;;;26.80;11.80;;;;;;;-3.85;100.00;99315.81;7328662;19;20313;-40
2024/01/18 09:20:54;;;;;;;36.25;15.77;;;;;;;-3.84;100.00;99312.50;7348980;19;20206;-40
2024/01/18 09:23:23;;;;;;;45.13;17.13;;;;;;;-3.75;100.00;99328.31;7327242;19;20261;-42
2024/01/18 09:25:53;;;;;;;45.58;16.45;;;;;;;-3.70;100.00;99338.78;7347400;19;20194;-42
2024/01/18 09:28:23;;;;;;;38.85;16.63;;;;;;;-3.62;100.00;99334.28;7326614;19;20194;-40
2024/01/18 09:30:55;;;;;;;49.33;18.50;;;;;;;-3.46;100.00;99356.50;7348620;19;20210;-42
2024/01/18 09:33:25;;;;;;;35.08;14.52;;;;;;;-3.37;100.00;99348.75;7327437;19;20198;-40
2024/01/18 09:35:55;;;;;;;43.38;18.25;;;;;;;-3.41;100.00;99353.56;7348638;19;20222;-44
2024/01/18 09:38:26;;;;;;;37.35;19.13;;;;;;;-3.28;100.00;99349.44;7327129;19;20574;-42
2024/01/18 09:41:03;;;;;;;54.47;21.83;;;;;;;-3.13;100.00;99353.09;7347901;19;20207;-40
2024/01/18 09:43:37;;;;;;;47.17;20.55;;;;;;;-3.07;100.00;99341.69;7327225;19;20261;-41
2024/01/18 09:46:11;;;;;;;75.22;26.63;;;;;;;-2.88;100.00;99339.72;7329719;19;20204;-40
2024/01/18 09:48:41;;;;;;;46.35;17.00;;;;;;;-2.75;100.00;99335.56;7350003;19;20701;-41
2024/01/18 09:51:12;;;;;;;28.20;13.88;;;;;;;-2.80;100.00;99322.63;7325839;19;20194;-41
2024/01/18 09:53:48;;;;;;;29.77;13.30;;;;;;;-2.58;100.00;99319.97;7347575;19;20202;-42
2024/01/18 09:56:26;;;;;;;28.75;13.25;;;;;;;-2.59;100.00;99292.97;7325494;19;20447;-42
2024/01/18 09:58:56;;;;;;;33.55;16.60;;;;;;;-2.53;100.00;99276.47;7347825;19;20938;-40
2024/01/18 10:01:30;;;;;;;37.78;16.05;;;;;;;-2.50;100.00;99269.13;7327014;19;20210;-40
2024/01/18 10:03:59;;;;;;;40.75;16.85;;;;;;;-2.56;100.00;99258.59;7348229;19;20198;-41
2024/01/18 10:06:29;;;;;;;31.33;14.10;;;;;;;-2.57;100.00;99255.16;7325353;19;20194;-40
2024/01/18 10:08:59;;;;;;;28.90;13.85;;;;;;;-2.43;100.00;99257.81;7348696;19;20265;-41
2024/01/18 10:11:29;;;;;;;28.15;12.73;;;;;;;-2.36;100.00;99255.78;7326146;19;20202;-46
2024/01/18 10:14:02;;;;;;;20.55;10.65;;;;;;;-2.33;100.00;99238.34;7347649;19;20209;-40
2024/01/18 10:16:35;;;;;;;20.42;10.77;;;;;;;-2.39;100.00;99237.91;7326910;19;20197;-40
2024/01/18 10:19:06;;;;;;;26.77;12.25;;;;;;;-2.20;100.00;99241.69;7345523;19;20216;-40
2024/01/18 10:21:37;;;;;;;27.52;10.90;;;;;;;-2.18;100.00;99235.09;7347892;19;20286;-39
2024/01/18 10:24:08;;;;;;;24.52;10.70;;;;;;;-2.20;100.00;99226.53;7329657;19;20246;-40
2024/01/18 10:26:38;;;;;;;33.35;13.32;;;;;;;-2.13;100.00;99232.88;7348223;19;20202;-40
2024/01/18 10:29:09;;;;;;;21.80;12.10;;;;;;;-1.93;100.00;99236.75;7326062;19;20609;-42
2024/01/18 10:31:42;;;;;;;28.42;11.68;;;;;;;-1.86;100.00;99222.88;7347868;19;20222;-41
2024/01/18 10:34:12;;;;;;;41.92;15.43;;;;;;;-1.65;100.00;99228.47;7325972;19;20198;-40
2024/01/18 10:36:42;;;;;;;21.42;11.27;;;;;;;-1.66;100.00;99235.19;7345792;19;20302;-39
2024/01/18 10:39:18;;;;;;;54.28;20.05;;;;;;;-1.69;100.00;99236.63;7324874;19;20206;-41
2024/01/18 10:41:48;;;;;;;23.73;11.30;;;;;;;-1.65;100.00;99229.34;7344889;19;20205;-41
2024/01/18 10:44:18;;;;;;;22.17;10.75;;;;;;;-1.59;100.00;99228.88;7325776;19;20635;-40
2024/01/18 10:46:51;;;;;;;34.92;14.15;;;;;;;-1.55;100.00;99230.81;7346647;19;20209;-42
2024/01/18 10:49:20;;;;;;;16.70;10.00;;;;;;;-1.50;100.00;99234.53;7324954;19;20246;-39
2024/01/18 10:51:51;;;;;;;19.35;9.70;;;;;;;-1.46;100.00;99229.66;7346797;19;20213;-40
2024/01/18 10:54:20;;;;;;;19.58;9.63;;;;;;;-1.42;100.00;99227.47;7325029;19;20206;-42
2024/01/18 10:57:04;;;;;;;19.65;10.05;;;;;;;-1.26;100.00;99234.38;7345149;19;20573;-39
2024/01/18 10:59:33;;;;;;;24.63;11.90;;;;;;;-1.14;100.00;99239.34;7325162;19;20544;-41
2024/01/18 11:02:06;;;;;;;39.97;15.07;;;;;;;-0.98;100.00;99241.19;7345024;19;20786;-40
2024/01/18 11:04:37;;;;;;;44.80;16.70;;;;;;;-0.80;100.00;99234.66;7325156;19;20198;-43
2024/01/18 11:07:08;;;;;;;19.20;8.07;;;;;;;-0.75;100.00;99234.19;7321938;19;20289;-40
2024/01/18 11:09:39;;;;;;;17.00;8.50;;;;;;;-0.64;100.00;99223.81;7344191;19;20198;-40
2024/01/18 11:12:11;;;;;;;15.32;8.13;;;;;;;-0.55;100.00;99222.75;7325092;19;20222;-39
2024/01/18 11:14:41;;;;;;;15.70;8.93;;;;;;;-0.56;100.00;99217.59;7347043;19;20269;-40
2024/01/18 11:17:19;;;;;;;23.40;7.85;;;;;;;-0.53;100.00;99230.44;7324176;19;20204;-40
2024/01/18 11:19:49;;;;;;;12.68;7.45;;;;;;;-0.52;100.00;99236.41;7336370;19;20881;-38
2024/01/18 11:22:26;;;;;;;21.48;8.35;;;;;;;-0.63;100.00;99235.72;7324347;19;20201;-39
2024/01/18 11:25:04;;;;;;;20.58;9.05;;;;;;;-0.65;100.00;99240.72;7344912;19;20198;-38